createdAt,value
2019-04-16T00:02:48.533Z,6.85
2019-04-16T00:05:27.438Z,6.77
2019-04-16T00:07:59.695Z,6.66
2019-04-16T00:10:48.164Z,6.59
2019-04-16T00:13:40.845Z,6.62
2019-04-16T00:16:12.968Z,6.62
2019-04-16T00:18:56.786Z,6.63
2019-04-16T00:21:42.026Z,6.63
2019-04-16T00:24:21.701Z,6.62
2019-04-16T00:26:58.063Z,6.54
2019-04-16T00:29:26.160Z,6.44
2019-04-16T00:32:00.137Z,6.44
2019-04-16T00:34:31.202Z,6.45
2019-04-16T00:37:01.855Z,6.44
2019-04-16T00:39:32.621Z,6.35
2019-04-16T00:42:03.680Z,6.30
2019-04-16T00:44:34.354Z,6.31
2019-04-16T00:47:05.260Z,6.32
2019-04-16T00:49:37.895Z,6.32
2019-04-16T00:52:08.351Z,6.31
2019-04-16T00:54:42.133Z,6.31
2019-04-16T00:57:11.542Z,6.31
2019-04-16T00:59:43.028Z,6.34
2019-04-16T01:02:13.987Z,6.32
2019-04-16T01:04:45.717Z,6.34
2019-04-16T01:07:17.556Z,6.35
2019-04-16T01:09:48.148Z,6.31
2019-04-16T01:12:18.992Z,6.30
2019-04-16T01:14:49.715Z,6.24
2019-04-16T01:17:20.769Z,6.21
2019-04-16T01:19:51.553Z,6.24
2019-04-16T01:22:22.373Z,6.20
2019-04-16T01:24:53.062Z,6.19
2019-04-16T01:27:32.388Z,6.20
2019-04-16T01:30:05.929Z,6.15
2019-04-16T01:33:03.707Z,6.18
2019-04-16T01:35:56.095Z,6.15
2019-04-16T01:38:34.576Z,6.12
2019-04-16T01:41:07.391Z,6.09
2019-04-16T01:43:38.045Z,6.06
2019-04-16T01:46:08.877Z,6.02
2019-04-16T01:48:39.803Z,5.97
2019-04-16T01:51:12.577Z,5.93
2019-04-16T01:53:42.814Z,5.97
2019-04-16T01:56:13.481Z,5.94
2019-04-16T01:58:44.190Z,5.94
2019-04-16T02:01:14.981Z,5.90
2019-04-16T02:03:48.655Z,5.88
2019-04-16T02:06:18.087Z,5.72
2019-04-16T02:08:48.852Z,5.64
2019-04-16T02:11:19.694Z,5.59
2019-04-16T02:13:50.482Z,5.64
2019-04-16T02:16:22.411Z,5.65
2019-04-16T02:18:53.894Z,5.66
2019-04-16T02:21:24.674Z,5.68
2019-04-16T02:23:55.606Z,5.68
2019-04-16T02:26:26.313Z,5.62
2019-04-16T02:28:58.944Z,5.63
2019-04-16T02:31:30.390Z,5.56
2019-04-16T02:34:01.423Z,5.51
2019-04-16T02:36:32.155Z,5.41
2019-04-16T02:39:03.071Z,5.43
2019-04-16T02:41:35.158Z,5.40
2019-04-16T02:44:05.955Z,5.38
2019-04-16T02:46:36.842Z,5.37
2019-04-16T02:49:07.771Z,5.36
2019-04-16T02:51:45.920Z,5.37
2019-04-16T02:54:32.349Z,5.36
2019-04-16T02:57:34.778Z,5.30
2019-04-16T03:00:17.571Z,5.29
2019-04-16T03:02:55.480Z,5.28
2019-04-16T03:05:35.120Z,5.24
2019-04-16T03:08:06.239Z,5.19
2019-04-16T03:10:37.105Z,5.14
2019-04-16T03:13:07.896Z,5.13
2019-04-16T03:16:06.047Z,5.15
2019-04-16T03:18:56.014Z,5.15
2019-04-16T03:21:27.422Z,5.16
2019-04-16T03:23:59.035Z,5.16
2019-04-16T03:26:29.944Z,5.19
2019-04-16T03:29:00.665Z,5.18
2019-04-16T03:31:31.406Z,5.15
2019-04-16T03:34:02.141Z,5.14
2019-04-16T03:36:32.919Z,5.10
2019-04-16T03:39:05.871Z,5.10
2019-04-16T03:41:36.632Z,5.08
2019-04-16T03:44:07.320Z,5.08
2019-04-16T03:46:40.073Z,5.08
2019-04-16T03:49:10.330Z,5.08
2019-04-16T03:51:41.008Z,5.11
2019-04-16T03:54:11.746Z,5.09
2019-04-16T03:56:42.737Z,5.12
2019-04-16T03:59:13.434Z,5.11
2019-04-16T04:01:46.023Z,5.13
2019-04-16T04:04:17.599Z,5.13
2019-04-16T04:06:48.534Z,5.16
2019-04-16T04:09:22.240Z,5.07
2019-04-16T04:11:51.506Z,5.05
2019-04-16T04:14:23.538Z,5.08
2019-04-16T04:16:54.343Z,5.13
2019-04-16T04:19:25.905Z,5.19
2019-04-16T04:21:56.725Z,5.22
2019-04-16T04:24:28.455Z,5.26
2019-04-16T04:26:59.939Z,5.28
2019-04-16T04:29:30.717Z,5.31
2019-04-16T04:32:03.356Z,5.29
2019-04-16T04:34:34.370Z,5.31
2019-04-16T04:37:05.229Z,5.26
2019-04-16T04:39:36.067Z,5.30
2019-04-16T04:42:06.590Z,5.33
2019-04-16T04:44:37.461Z,5.29
2019-04-16T04:47:08.265Z,5.27
2019-04-16T04:49:39.204Z,5.23
2019-04-16T04:52:13.648Z,5.18
2019-04-16T04:54:42.413Z,5.17
2019-04-16T04:57:13.233Z,5.15
2019-04-16T04:59:43.981Z,5.14
2019-04-16T05:02:15.757Z,5.07
2019-04-16T05:04:54.043Z,5.09
2019-04-16T05:07:25.740Z,5.04
2019-04-16T05:09:57.117Z,4.97
2019-04-16T05:12:27.811Z,4.97
2019-04-16T05:14:58.959Z,4.99
2019-04-16T05:17:30.724Z,4.98
2019-04-16T05:20:01.601Z,5.05
2019-04-16T05:22:33.164Z,5.06
2019-04-16T05:25:04.394Z,5.06
2019-04-16T05:27:40.109Z,5.11
2019-04-16T05:30:07.778Z,5.16
2019-04-16T05:32:38.579Z,5.20
2019-04-16T05:35:10.799Z,5.27
2019-04-16T05:37:41.781Z,5.31
2019-04-16T05:40:12.470Z,5.41
2019-04-16T05:42:43.313Z,5.45
2019-04-16T05:45:14.697Z,5.50
2019-04-16T05:47:48.715Z,5.57
2019-04-16T05:50:18.809Z,5.63
2019-04-16T05:52:49.542Z,5.69
2019-04-16T05:55:42.013Z,5.74
2019-04-16T05:58:12.804Z,5.80
2019-04-16T06:00:52.617Z,5.86
2019-04-16T06:03:23.391Z,5.94
2019-04-16T06:05:56.320Z,5.99
2019-04-16T06:08:26.494Z,6.07
2019-04-16T06:10:57.640Z,6.19
2019-04-16T06:13:50.236Z,6.28
2019-04-16T06:16:26.599Z,6.46
2019-04-16T06:19:15.933Z,6.57
2019-04-16T06:22:06.640Z,6.72
2019-04-16T06:24:56.162Z,6.88
2019-04-16T06:27:32.050Z,7.13
2019-04-16T06:30:20.339Z,7.47
2019-04-16T06:32:56.978Z,7.44
2019-04-16T06:35:45.668Z,7.54
2019-04-16T06:38:23.421Z,7.67
2019-04-16T06:41:40.843Z,7.67
2019-04-16T06:44:04.040Z,7.76
2019-04-16T06:47:02.282Z,7.90
2019-04-16T06:50:01.845Z,7.98
2019-04-16T06:52:57.876Z,8.19
2019-04-16T06:55:43.181Z,8.49
2019-04-16T06:58:49.711Z,8.73
2019-04-16T07:01:42.031Z,8.89
2019-04-16T07:04:23.035Z,9.07
2019-04-16T07:07:11.074Z,9.14
2019-04-16T07:09:45.995Z,9.34
2019-04-16T07:12:21.803Z,9.51
2019-04-16T07:14:52.443Z,9.67
2019-04-16T07:17:23.096Z,9.94
2019-04-16T07:19:53.999Z,10.00
2019-04-16T07:22:24.738Z,10.18
2019-04-16T07:24:56.597Z,10.40
2019-04-16T07:27:38.392Z,10.54
2019-04-16T07:30:14.553Z,10.62
2019-04-16T07:33:14.164Z,10.84
2019-04-16T07:35:50.591Z,11.04
2019-04-16T07:38:26.436Z,11.37
2019-04-16T07:41:17.231Z,11.66
2019-04-16T07:44:07.728Z,11.89
2019-04-16T07:46:44.219Z,12.09
2019-04-16T07:49:36.920Z,12.12
2019-04-16T07:52:29.644Z,12.20
2019-04-16T07:55:23.771Z,12.29
2019-04-16T07:57:55.869Z,12.40
2019-04-16T08:00:27.671Z,12.59
2019-04-16T08:02:58.358Z,12.52
2019-04-16T08:05:29.073Z,12.66
2019-04-16T08:07:59.972Z,12.72
2019-04-16T08:10:30.757Z,12.75
2019-04-16T08:13:14.972Z,12.94
2019-04-16T08:15:45.731Z,12.96
2019-04-16T08:18:16.619Z,13.13
2019-04-16T08:21:00.615Z,13.12
2019-04-16T08:23:39.316Z,13.24
2019-04-16T08:26:12.950Z,13.28
2019-04-16T08:28:43.030Z,13.46
2019-04-16T08:31:16.722Z,13.56
2019-04-16T08:33:47.413Z,13.74
2019-04-16T08:36:18.495Z,13.91
2019-04-16T08:38:49.475Z,14.08
2019-04-16T08:41:21.442Z,14.34
2019-04-16T08:43:52.429Z,14.60
2019-04-16T08:46:23.319Z,14.73
2019-04-16T08:48:54.628Z,15.05
2019-04-16T08:51:30.873Z,15.31
2019-04-16T08:53:58.699Z,15.29
2019-04-16T08:56:29.486Z,15.58
2019-04-16T08:59:01.397Z,15.40
2019-04-16T09:01:33.130Z,15.44
2019-04-16T09:04:04.093Z,15.53
2019-04-16T09:06:34.685Z,15.80
2019-04-16T09:09:25.808Z,15.82
2019-04-16T09:12:00.120Z,15.80
2019-04-16T09:14:32.771Z,15.57
2019-04-16T09:17:31.519Z,15.73
2019-04-16T09:20:06.962Z,15.99
2019-04-16T09:22:48.988Z,16.20
2019-04-16T09:25:48.091Z,16.15
2019-04-16T09:28:26.553Z,16.24
2019-04-16T09:31:18.742Z,16.50
2019-04-16T09:33:57.324Z,16.48
2019-04-16T09:36:35.135Z,16.67
2019-04-16T09:39:27.003Z,16.61
2019-04-16T09:41:57.700Z,16.78
2019-04-16T09:44:31.063Z,16.98
2019-04-16T09:47:01.018Z,16.92
2019-04-16T09:49:34.439Z,16.83
2019-04-16T09:52:04.364Z,16.97
2019-04-16T09:54:35.244Z,17.26
2019-04-16T09:57:06.901Z,17.26
2019-04-16T09:59:47.702Z,17.48
2019-04-16T10:02:23.496Z,17.50
2019-04-16T10:04:54.372Z,17.45
2019-04-16T10:07:25.249Z,17.49
2019-04-16T10:09:56.048Z,17.56
2019-04-16T10:12:26.830Z,17.52
2019-04-16T10:14:57.671Z,17.59
2019-04-16T10:17:28.557Z,17.62
2019-04-16T10:19:59.391Z,17.69
2019-04-16T10:22:30.494Z,17.19
2019-04-16T10:25:12.771Z,17.33
2019-04-16T10:27:45.925Z,17.53
2019-04-16T10:30:20.569Z,17.35
2019-04-16T10:32:51.415Z,17.29
2019-04-16T10:35:22.449Z,17.34
2019-04-16T10:37:53.481Z,17.28
2019-04-16T10:40:43.054Z,17.61
2019-04-16T10:43:43.882Z,17.80
2019-04-16T10:46:21.703Z,17.89
2019-04-16T10:49:16.492Z,18.29
2019-04-16T10:51:58.410Z,18.18
2019-04-16T10:54:43.441Z,18.15
2019-04-16T10:57:42.139Z,17.96
2019-04-16T11:00:25.934Z,18.19
2019-04-16T11:03:06.743Z,18.19
2019-04-16T11:05:42.166Z,18.05
2019-04-16T11:08:13.426Z,18.18
2019-04-16T11:10:44.058Z,18.41
2019-04-16T11:13:33.668Z,18.48
2019-04-16T11:16:10.504Z,18.47
2019-04-16T11:18:41.504Z,18.54
2019-04-16T11:21:12.372Z,18.44
2019-04-16T11:23:43.285Z,18.22
2019-04-16T11:26:15.290Z,18.43
2019-04-16T11:28:45.902Z,18.49
2019-04-16T11:31:19.765Z,18.61
2019-04-16T11:33:50.557Z,18.81
2019-04-16T11:36:21.273Z,18.94
2019-04-16T11:38:51.809Z,18.90
2019-04-16T11:41:22.375Z,18.64
2019-04-16T11:43:53.158Z,18.44
2019-04-16T11:46:24.121Z,18.45
2019-04-16T11:48:55.571Z,18.56
2019-04-16T11:51:26.220Z,18.45
2019-04-16T11:53:56.937Z,18.49
2019-04-16T11:56:27.716Z,18.55
2019-04-16T11:58:58.323Z,18.82
2019-04-16T12:01:50.726Z,18.62
2019-04-16T12:04:38.872Z,18.37
2019-04-16T12:07:46.878Z,18.64
2019-04-16T12:10:40.592Z,18.69
2019-04-16T12:13:28.957Z,18.66
2019-04-16T12:16:13.878Z,18.89
2019-04-16T12:18:59.340Z,19.12
2019-04-16T12:21:54.866Z,18.74
2019-04-16T12:24:43.550Z,18.65
2019-04-16T12:27:32.003Z,18.75
2019-04-16T12:30:21.665Z,18.60
2019-04-16T12:33:14.620Z,18.62
2019-04-16T12:36:04.514Z,18.64
2019-04-16T12:38:46.662Z,18.55
2019-04-16T12:41:31.791Z,18.70
2019-04-16T12:44:24.089Z,18.89
2019-04-16T12:47:19.754Z,18.60
2019-04-16T12:50:12.144Z,18.48
2019-04-16T12:53:10.861Z,18.51
2019-04-16T12:56:05.952Z,18.44
2019-04-16T12:58:54.153Z,18.45
2019-04-16T13:01:46.052Z,18.32
2019-04-16T13:04:38.515Z,18.12
2019-04-16T13:07:15.728Z,18.45
2019-04-16T13:10:04.206Z,18.79
2019-04-16T13:12:52.490Z,18.84
2019-04-16T13:15:45.847Z,18.71
2019-04-16T13:18:35.476Z,18.72
2019-04-16T13:21:15.060Z,18.63
2019-04-16T13:24:13.890Z,18.36
2019-04-16T13:27:04.144Z,18.41
2019-04-16T13:29:34.940Z,18.43
2019-04-16T13:32:05.674Z,18.60
2019-04-16T13:34:36.555Z,18.58
2019-04-16T13:37:07.356Z,18.46
2019-04-16T13:39:59.295Z,18.57
2019-04-16T13:42:28.370Z,18.23
2019-04-16T13:45:17.128Z,18.34
2019-04-16T13:47:48.628Z,18.03
2019-04-16T13:50:44.162Z,17.87
2019-04-16T13:53:33.303Z,17.71
2019-04-16T13:56:25.838Z,17.60
2019-04-16T13:59:02.486Z,17.59
2019-04-16T14:01:39.252Z,17.54
2019-04-16T14:04:09.208Z,17.65
2019-04-16T14:06:39.866Z,17.55
2019-04-16T14:09:10.885Z,17.58
2019-04-16T14:11:41.882Z,17.39
2019-04-16T14:14:17.401Z,17.15
2019-04-16T14:16:45.498Z,17.22
2019-04-16T14:19:16.271Z,17.35
2019-04-16T14:21:46.875Z,17.22
2019-04-16T14:24:17.666Z,17.10
2019-04-16T14:26:48.366Z,17.37
2019-04-16T14:29:18.894Z,17.29
2019-04-16T14:31:49.633Z,17.28
2019-04-16T14:34:29.896Z,17.37
2019-04-16T14:37:00.721Z,17.08
2019-04-16T14:39:35.678Z,17.25
2019-04-16T14:42:06.350Z,16.87
2019-04-16T14:44:41.458Z,16.78
2019-04-16T14:47:12.260Z,16.76
2019-04-16T14:49:44.049Z,16.80
2019-04-16T14:52:14.887Z,16.97
2019-04-16T14:54:54.675Z,17.02
2019-04-16T14:57:25.473Z,17.19
2019-04-16T15:00:09.643Z,17.19
2019-04-16T15:02:44.571Z,17.19
2019-04-16T15:05:31.574Z,17.08
2019-04-16T15:08:33.476Z,16.99
2019-04-16T15:11:21.887Z,17.07
2019-04-16T15:14:09.307Z,17.05
2019-04-16T15:16:44.617Z,16.87
2019-04-16T15:19:34.225Z,16.94
2019-04-16T15:22:21.207Z,17.00
2019-04-16T15:25:11.359Z,16.82
2019-04-16T15:27:59.933Z,16.80
2019-04-16T15:30:45.638Z,16.80
2019-04-16T15:33:38.807Z,16.89
2019-04-16T15:36:29.443Z,16.92
2019-04-16T15:39:12.287Z,16.78
2019-04-16T15:42:01.662Z,16.68
2019-04-16T15:44:52.714Z,16.71
2019-04-16T15:47:42.937Z,16.67
2019-04-16T15:50:35.216Z,16.50
2019-04-16T15:53:34.781Z,16.53
2019-04-16T15:56:18.886Z,16.57
2019-04-16T15:58:59.750Z,16.59
2019-04-16T16:02:02.138Z,16.27
2019-04-16T16:04:43.098Z,16.18
2019-04-16T16:07:16.719Z,15.95
2019-04-16T16:10:12.515Z,15.90
2019-04-16T16:12:40.485Z,15.93
2019-04-16T16:15:11.352Z,15.86
2019-04-16T16:17:42.265Z,15.90
2019-04-16T16:20:13.338Z,15.64
2019-04-16T16:22:44.149Z,15.07
2019-04-16T16:25:15.012Z,15.02
2019-04-16T16:27:47.143Z,15.02
2019-04-16T16:30:18.078Z,14.96
2019-04-16T16:32:48.649Z,14.84
2019-04-16T16:35:19.345Z,14.92
2019-04-16T16:37:50.012Z,14.92
2019-04-16T16:40:20.814Z,15.07
2019-04-16T16:42:51.482Z,14.87
2019-04-16T16:45:23.835Z,14.76
2019-04-16T16:47:54.485Z,14.67
2019-04-16T16:50:25.303Z,14.42
2019-04-16T16:53:05.715Z,14.36
2019-04-16T16:55:39.050Z,14.30
2019-04-16T16:58:28.926Z,14.24
2019-04-16T17:01:17.894Z,14.27
2019-04-16T17:03:52.859Z,14.33
2019-04-16T17:06:23.707Z,14.32
2019-04-16T17:08:54.389Z,14.27
2019-04-16T17:11:25.157Z,14.14
2019-04-16T17:13:58.080Z,14.15
2019-04-16T17:16:28.275Z,14.18
2019-04-16T17:18:58.958Z,13.98
2019-04-16T17:21:29.615Z,13.96
2019-04-16T17:24:00.495Z,14.01
2019-04-16T17:26:31.172Z,14.03
2019-04-16T17:29:02.159Z,13.94
2019-04-16T17:31:35.861Z,13.87
2019-04-16T17:34:05.515Z,13.90
2019-04-16T17:36:37.409Z,13.89
2019-04-16T17:39:10.709Z,13.83
2019-04-16T17:41:49.319Z,13.77
2019-04-16T17:44:37.614Z,13.70
2019-04-16T17:47:42.524Z,13.68
2019-04-16T17:50:32.339Z,13.66
2019-04-16T17:53:16.069Z,13.61
2019-04-16T17:56:04.883Z,13.59
2019-04-16T17:58:42.152Z,13.45
2019-04-16T18:01:44.497Z,13.32
2019-04-16T18:04:33.115Z,13.33
2019-04-16T18:07:21.585Z,13.29
2019-04-16T18:10:11.107Z,13.07
2019-04-16T18:13:06.869Z,13.01
2019-04-16T18:15:43.477Z,12.84
2019-04-16T18:18:24.773Z,12.80
2019-04-16T18:21:32.976Z,12.58
2019-04-16T18:24:25.892Z,12.65
2019-04-16T18:27:14.633Z,12.77
2019-04-16T18:30:16.666Z,12.88
2019-04-16T18:33:09.393Z,12.79
2019-04-16T18:35:46.395Z,12.68
2019-04-16T18:38:39.114Z,12.70
2019-04-16T18:41:27.860Z,12.75
2019-04-16T18:44:33.135Z,12.78
2019-04-16T18:47:26.031Z,12.77
2019-04-16T18:50:01.116Z,12.81
2019-04-16T18:52:32.166Z,12.73
2019-04-16T18:55:03.134Z,12.54
2019-04-16T18:57:38.341Z,12.44
2019-04-16T19:00:28.661Z,12.37
2019-04-16T19:02:58.577Z,12.40
2019-04-16T19:05:30.789Z,12.38
2019-04-16T19:08:01.639Z,12.51
2019-04-16T19:10:33.546Z,12.54
2019-04-16T19:13:09.711Z,12.48
2019-04-16T19:15:37.349Z,12.49
2019-04-16T19:18:18.867Z,12.54
2019-04-16T19:20:42.198Z,12.55
2019-04-16T19:23:14.061Z,12.62
2019-04-16T19:25:44.893Z,12.58
2019-04-16T19:28:15.790Z,12.53
2019-04-16T19:30:46.563Z,12.49
2019-04-16T19:33:17.504Z,12.47
2019-04-16T19:35:50.984Z,12.45
2019-04-16T19:38:21.074Z,12.40
2019-04-16T19:40:52.596Z,12.20
2019-04-16T19:43:23.931Z,12.19
2019-04-16T19:45:55.664Z,12.23
2019-04-16T19:48:35.275Z,12.08
2019-04-16T19:50:59.247Z,11.94
2019-04-16T19:53:29.842Z,11.98
2019-04-16T19:56:00.820Z,12.07
2019-04-16T19:58:31.618Z,12.10
2019-04-16T20:01:02.761Z,12.14
2019-04-16T20:03:33.805Z,12.20
2019-04-16T20:06:04.860Z,12.17
2019-04-16T20:08:39.866Z,12.14
2019-04-16T20:11:08.540Z,12.14
2019-04-16T20:13:39.458Z,12.14
2019-04-16T20:16:10.237Z,12.14
2019-04-16T20:18:50.902Z,12.12
2019-04-16T20:21:14.118Z,12.14
2019-04-16T20:23:45.185Z,12.13
2019-04-16T20:26:16.014Z,12.10
2019-04-16T20:28:48.466Z,12.06
2019-04-16T20:31:19.754Z,11.95
2019-04-16T20:33:50.789Z,11.78
2019-04-16T20:36:22.703Z,11.61
2019-04-16T20:38:54.356Z,11.48
2019-04-16T20:41:25.139Z,11.51
2019-04-16T20:43:56.020Z,11.52
2019-04-16T20:46:26.802Z,11.39
2019-04-16T20:49:08.142Z,11.38
2019-04-16T20:51:30.539Z,11.36
2019-04-16T20:54:01.613Z,11.46
2019-04-16T20:56:32.414Z,11.48
2019-04-16T20:59:05.230Z,11.54
2019-04-16T21:01:37.767Z,11.66
2019-04-16T21:04:08.910Z,11.72
2019-04-16T21:06:41.902Z,11.74
2019-04-16T21:09:12.384Z,11.78
2019-04-16T21:11:43.268Z,11.77
2019-04-16T21:14:14.167Z,11.76
2019-04-16T21:16:45.034Z,11.64
2019-04-16T21:19:23.193Z,11.52
2019-04-16T21:21:48.964Z,11.42
2019-04-16T21:24:20.887Z,11.45
2019-04-16T21:26:51.902Z,11.51
2019-04-16T21:29:33.425Z,11.55
2019-04-16T21:32:02.741Z,11.41
2019-04-16T21:34:36.976Z,11.27
2019-04-16T21:37:19.909Z,11.27
2019-04-16T21:39:56.254Z,11.19
2019-04-16T21:42:28.307Z,11.17
2019-04-16T21:44:59.481Z,11.28
2019-04-16T21:47:30.287Z,11.41
2019-04-16T21:50:01.352Z,11.53
2019-04-16T21:52:32.168Z,11.61
2019-04-16T21:55:04.825Z,11.64
2019-04-16T21:57:35.686Z,11.66
2019-04-16T22:00:10.480Z,11.66
2019-04-16T22:02:43.096Z,11.64
2019-04-16T22:05:16.900Z,11.67
2019-04-16T22:07:46.563Z,11.68
2019-04-16T22:10:17.339Z,11.68
2019-04-16T22:12:48.755Z,11.65
2019-04-16T22:15:22.620Z,11.62
2019-04-16T22:17:52.345Z,11.62
2019-04-16T22:20:23.165Z,11.63
2019-04-16T22:22:54.093Z,11.64
2019-04-16T22:25:26.904Z,11.61
2019-04-16T22:27:58.556Z,11.58
2019-04-16T22:30:29.414Z,11.57
2019-04-16T22:33:05.479Z,11.56
2019-04-16T22:35:32.728Z,11.57
2019-04-16T22:38:03.521Z,11.56
2019-04-16T22:40:56.640Z,11.55
2019-04-16T22:43:52.072Z,11.55
2019-04-16T22:46:30.253Z,11.57
2019-04-16T22:49:01.805Z,11.57
2019-04-16T22:51:32.802Z,11.54
2019-04-16T22:54:03.730Z,11.48
2019-04-16T22:56:51.285Z,11.39
2019-04-16T22:59:22.103Z,11.27
2019-04-16T23:01:53.586Z,11.14
2019-04-16T23:04:26.162Z,11.18
2019-04-16T23:06:57.100Z,11.27
2019-04-16T23:09:29.545Z,11.30
2019-04-16T23:12:00.260Z,11.21
2019-04-16T23:14:31.732Z,11.23
2019-04-16T23:17:03.777Z,11.29
2019-04-16T23:19:34.565Z,11.29
2019-04-16T23:22:05.457Z,11.21
2019-04-16T23:24:36.339Z,11.20
2019-04-16T23:27:07.564Z,11.18
2019-04-16T23:29:38.681Z,11.23
2019-04-16T23:32:09.854Z,11.24
2019-04-16T23:34:40.706Z,11.21
2019-04-16T23:37:11.598Z,11.27
2019-04-16T23:39:42.498Z,11.28
2019-04-16T23:42:13.271Z,11.34
2019-04-16T23:45:05.707Z,11.35
2019-04-16T23:48:01.915Z,11.34
2019-04-16T23:50:51.822Z,11.35
2019-04-16T23:53:50.715Z,11.25
2019-04-16T23:56:28.515Z,11.25
2019-04-16T23:59:12.562Z,11.30
